Portada
METAR-TAF:

METAR-TAF

Aeroports :

Savannakhet, Laos

latitud: 16-33-24N, longitud: 104-45-34E, altitud: 155 m

Observació

L'informe es va fer fa 56 minuts, a les 04:00 UTC
Vent 6 kt del Nord-Est
Temperatura 29°C
Humitat 48%
Pressió 1017 hPa
Visibilitat: 8000 m
Núvols disperses a una alçada de 2000 ft
Escasses núvols a una alçada de 10000 ft

METAR: VLSK 210400Z 04006KT 8000 SCT020 FEW100 29/17 Q1017 NOSIG

Hora: 11:56 (04:56 UTC)

Pronòstic

L'informe es va fer fa 5 hores i 56 minuts, a les 23:00 UTC
Pronòstic vàlid del 21 a les 00 UTC al 21 a les 24 UTC
Vent 4 kt del Est
Visibilitat: 8000 m
Núvols disperses a una alçada de 2000 ft
Núvols disperses a una alçada de 10000 ft

TAF: VLSK 202300Z 2100/2124 09004KT 8000 SCT020 SCT100

Observacions i pronòstics meteorològics de més de 4000 aeroports (METAR i TAF).

Les estacions disponibles són els punts grocs i vermells al mapa.

Posi el ratolí al punt desitjat per veure el nom de l'estació.

Feu clic per veure les observacions i els pronòstics meteorològics.

Per canviar el mapa: feu clic els botons verds amb una creu de color negre per apropar; al botó verd amb un guió per allunyar la imatge; o en les fletxes verdes per a mapes adjacents.


METAR-TAF: